Baruunturuun, Mongolia
Current Conditions -  °F | °C
As of 2:30 AM on Monday 26 Jan 2015 (Local Time) from UNAA Reporting Station
Broken Clouds Broken Clouds  
Wind Chill: -17°   Ceiling: 20000
Heat Index: -17°   Visibility: 4mi
Dew Point: -24°   Wind: 0mph
Humidity: 70%   Direction: NA
Pressure: 30.92"   Gusts: NA
Location:  49.66°N, 94.39°E
Report Text: UNAA 251830Z 00000MPS 7000 FEW003 BKN200 M27/M31 Q1047 NOSIGRMK QFE762 52190055
Loading
Personal Weather Stations






























Interactive Weather Map New forecast layout! Learn more

10-Day Weather Forecast

Advertisements
Track Severe Weather on mobile